Warrensville Heights, Ohio
Current Conditions -  °F | °C
As of 3:53 AM on Friday 28 Nov 2014 (Local Time) from KBKL Reporting Station
Overcast Overcast  
Wind Chill: 15°   Ceiling: 3500
Heat Index: 28°   Visibility: 10mi
Dew Point: 18°   Wind: 20mph
Humidity: 66%   Direction: 280°W
Pressure: 30.3"   Gusts: 30mph
Location:  41.4368°N, 81.5396°W
Report Text: KBKL 280853Z 28017G26KT 10SM BKN035 OVC045 M02/M08 A3030 RMK AO2 PK WND 28027/0816 SLP267 60000 T10221078 53014
Loading
Personal Weather Stations






























Interactive Weather Map New forecast layout! Learn more

10-Day Weather Forecast

Advertisements
Track Severe Weather on mobile